R. M. Thorstenson — KGCJ — position and weather

sailwx.info

Track history (hours):
 
Tides and Currents Weather Stations Pressure Air Temp Water Temp Dewpoint Dewpoint Depression Visibility Wind Speed Wind Dir Waves Ship Positions

R. M. Thorstenson

More information available from US FCC via Universal Licensing System and Coast Guard Vessel Documentation Center.

Last reported at 2014-Jun-27 15:31 UTC. Time now 2014-Jul-29 02:42 UTC.
Position N 58°19' W 136°14'.
Warning: this ship's position is 31 days out of date.

Type: Fishing. MMSI: 366577000.

Date/timePositionNaut miles runAvg speedWind from/ knotsBaromVisibWave heightAir tempDewpointWater temp
2014-Jun-27 15:31N 58°19' W 136°14'1111.4
2014-Jun-27 14:34N 58°19' W 135°53'1211.6
2014-Jun-27 13:34N 58°14' W 135°33'265 8.2
2014-Jun-26 05:09N 54°41' W 130°50'7 9.5
2014-Jun-26 04:23N 54°34' W 130°43'910.8
2014-Jun-26 03:33N 54°26' W 130°38'1110.7
2014-Jun-26 02:33N 54°16' W 130°32'144 9.5
2014-Jun-25 11:26N 52°15' W 128°22'1011.3
2014-Jun-25 10:33N 52°12' W 128°06'8 7.1
2014-Jun-25 09:24N 52°05' W 128°00'9 9.6
2014-Jun-25 08:27N 51°56' W 127°56'2110.7
2014-Jun-25 06:31N 51°35' W 127°53'1210.2
2014-Jun-25 05:19N 51°23' W 127°51'810.2
2014-Jun-25 04:33N 51°15' W 127°53'1010.0
2014-Jun-25 03:33N 51°07' W 127°46'1110.7
2014-Jun-25 02:34N 50°59' W 127°33'1111.0
2014-Jun-25 01:33N 50°53' W 127°19'1010.4
2014-Jun-25 00:33N 50°47' W 127°05'1110.7
2014-Jun-24 23:33N 50°41' W 126°52'2110.2
2014-Jun-24 21:28N 50°30' W 126°22'45 9.0
2014-Jun-24 16:26N 50°07' W 125°21'1011.6
2014-Jun-24 15:33N 49°59' W 125°12'6 6.2
2014-Jun-24 14:32N 49°55' W 125°04'1111.3
2014-Jun-24 13:33N 49°49' W 124°50'1211.6
2014-Jun-24 12:33N 49°41' W 124°36'1111.3
2014-Jun-24 11:33N 49°34' W 124°23'1110.7
2014-Jun-24 10:33N 49°29' W 124°08'1110.9
2014-Jun-24 09:33N 49°23' W 123°54'1110.9
2014-Jun-24 08:33N 49°17' W 123°41'1111.1
2014-Jun-24 07:33N 49°09' W 123°29'1110.9
2014-Jun-24 06:34N 49°01' W 123°17'1111.1
2014-Jun-24 05:33N 48°54' W 123°04'1111.0
2014-Jun-24 04:34N 48°47' W 122°51'10 9.6
2014-Jun-24 03:34N 48°39' W 122°44'1110.0
2014-Jun-24 02:29N 48°28' W 122°44'1010.7
2014-Jun-24 01:34N 48°18' W 122°46'10 9.2
2014-Jun-24 00:29N 48°09' W 122°42'1010.2
2014-Jun-23 23:33N 48°00' W 122°36'1010.4
2014-Jun-23 22:33N 47°51' W 122°28'1010.1
2014-Jun-23 21:33N 47°41' W 122°25'1 0.9
2014-Jun-23 20:33N 47°41' W 122°26'0 0.0
2014-Jun-23 19:31N 47°41' W 122°26'0 0.0
2014-Jun-23 18:31N 47°41' W 122°26'0 0.0
2014-Jun-23 17:32N 47°41' W 122°26'0 0.0
2014-Jun-23 16:33N 47°41' W 122°26'0 0.0
2014-Jun-23 15:33N 47°41' W 122°26'0 0.1
2014-Jun-23 14:33N 47°41' W 122°25'4 1.9
2014-Jun-23 12:32N 47°39' W 122°20'0 0.0
2014-Jun-23 11:32N 47°39' W 122°20'0 0.0
2014-Jun-23 10:33N 47°39' W 122°20'0 0.0
2014-Jun-23 09:33N 47°39' W 122°20'0 0.0
2014-Jun-23 08:31N 47°39' W 122°20'0 0.0
2014-Jun-23 07:29N 47°39' W 122°20'0 0.0
2014-Jun-23 06:30N 47°39' W 122°20'0 0.0
2014-Jun-23 05:33N 47°39' W 122°20'0 0.0
2014-Jun-23 04:28N 47°39' W 122°20'0 0.0
2014-Jun-23 03:32N 47°39' W 122°20'0 0.0
2014-Jun-23 02:32N 47°39' W 122°20'  
Track history (hours):
 
Tides and Currents Weather Stations Pressure Air Temp Water Temp Dewpoint Dewpoint Depression Visibility Wind Speed Wind Dir Waves Ship Positions

R. M. Thorstenson

More information available from US FCC via Universal Licensing System and Coast Guard Vessel Documentation Center.

Last reported at 2014-Jun-27 15:31 UTC. Time now 2014-Jul-29 02:42 UTC.
Position N 58°19' W 136°14'.
Warning: this ship's position is 31 days out of date.

Type: Fishing. MMSI: 366577000.

Date/timePositionNaut miles runAvg speedWind from/ knotsBaromVisibWave heightAir tempDewpointWater temp
2014-Jun-27 15:31N 58°19' W 136°14'1111.4
2014-Jun-27 14:34N 58°19' W 135°53'1211.6
2014-Jun-27 13:34N 58°14' W 135°33'265 8.2
2014-Jun-26 05:09N 54°41' W 130°50'7 9.5
2014-Jun-26 04:23N 54°34' W 130°43'910.8
2014-Jun-26 03:33N 54°26' W 130°38'1110.7
2014-Jun-26 02:33N 54°16' W 130°32'144 9.5
2014-Jun-25 11:26N 52°15' W 128°22'1011.3
2014-Jun-25 10:33N 52°12' W 128°06'8 7.1
2014-Jun-25 09:24N 52°05' W 128°00'9 9.6
2014-Jun-25 08:27N 51°56' W 127°56'2110.7
2014-Jun-25 06:31N 51°35' W 127°53'1210.2
2014-Jun-25 05:19N 51°23' W 127°51'810.2
2014-Jun-25 04:33N 51°15' W 127°53'1010.0
2014-Jun-25 03:33N 51°07' W 127°46'1110.7
2014-Jun-25 02:34N 50°59' W 127°33'1111.0
2014-Jun-25 01:33N 50°53' W 127°19'1010.4
2014-Jun-25 00:33N 50°47' W 127°05'1110.7
2014-Jun-24 23:33N 50°41' W 126°52'2110.2
2014-Jun-24 21:28N 50°30' W 126°22'45 9.0
2014-Jun-24 16:26N 50°07' W 125°21'1011.6
2014-Jun-24 15:33N 49°59' W 125°12'6 6.2
2014-Jun-24 14:32N 49°55' W 125°04'1111.3
2014-Jun-24 13:33N 49°49' W 124°50'1211.6
2014-Jun-24 12:33N 49°41' W 124°36'1111.3
2014-Jun-24 11:33N 49°34' W 124°23'1110.7
2014-Jun-24 10:33N 49°29' W 124°08'1110.9
2014-Jun-24 09:33N 49°23' W 123°54'1110.9
2014-Jun-24 08:33N 49°17' W 123°41'1111.1
2014-Jun-24 07:33N 49°09' W 123°29'1110.9
2014-Jun-24 06:34N 49°01' W 123°17'1111.1
2014-Jun-24 05:33N 48°54' W 123°04'1111.0
2014-Jun-24 04:34N 48°47' W 122°51'10 9.6
2014-Jun-24 03:34N 48°39' W 122°44'1110.0
2014-Jun-24 02:29N 48°28' W 122°44'1010.7
2014-Jun-24 01:34N 48°18' W 122°46'10 9.2
2014-Jun-24 00:29N 48°09' W 122°42'1010.2
2014-Jun-23 23:33N 48°00' W 122°36'1010.4
2014-Jun-23 22:33N 47°51' W 122°28'1010.1
2014-Jun-23 21:33N 47°41' W 122°25'1 0.9
2014-Jun-23 20:33N 47°41' W 122°26'0 0.0
2014-Jun-23 19:31N 47°41' W 122°26'0 0.0
2014-Jun-23 18:31N 47°41' W 122°26'0 0.0
2014-Jun-23 17:32N 47°41' W 122°26'0 0.0
2014-Jun-23 16:33N 47°41' W 122°26'0 0.0
2014-Jun-23 15:33N 47°41' W 122°26'0 0.1
2014-Jun-23 14:33N 47°41' W 122°25'4 1.9
2014-Jun-23 12:32N 47°39' W 122°20'0 0.0
2014-Jun-23 11:32N 47°39' W 122°20'0 0.0
2014-Jun-23 10:33N 47°39' W 122°20'0 0.0
2014-Jun-23 09:33N 47°39' W 122°20'0 0.0
2014-Jun-23 08:31N 47°39' W 122°20'0 0.0
2014-Jun-23 07:29N 47°39' W 122°20'0 0.0
2014-Jun-23 06:30N 47°39' W 122°20'0 0.0
2014-Jun-23 05:33N 47°39' W 122°20'0 0.0
2014-Jun-23 04:28N 47°39' W 122°20'0 0.0
2014-Jun-23 03:32N 47°39' W 122°20'0 0.0
2014-Jun-23 02:32N 47°39' W 122°20'  

Dump ship's entire track history